createdAt,value
2023-10-25T00:00:14.000Z,15
2023-10-25T00:00:23.000Z,14
2023-10-25T13:02:02.000Z,12
2023-10-25T13:02:11.000Z,12
2023-10-25T13:02:19.000Z,13
2023-10-25T13:02:24.000Z,13
2023-10-25T13:02:43.000Z,13
2023-10-25T13:02:52.000Z,13
2023-10-25T13:03:03.000Z,13
2023-10-25T13:03:14.000Z,13
2023-10-25T13:03:25.000Z,12
2023-10-25T13:03:33.000Z,13
2023-10-25T13:03:39.000Z,13
2023-10-25T13:20:31.000Z,15
2023-10-25T13:20:41.000Z,14
2023-10-25T13:20:50.000Z,15
2023-10-25T13:20:50.000Z,14
2023-10-25T13:21:07.000Z,15
2023-10-25T13:21:23.000Z,15
2023-10-25T13:21:33.000Z,15
2023-10-25T13:21:42.000Z,15
2023-10-25T13:21:54.000Z,15
2023-10-25T13:21:59.000Z,15
2023-10-25T13:22:15.000Z,15
2023-10-25T13:22:25.000Z,15
2023-10-25T13:22:33.000Z,15
2023-10-25T13:22:46.000Z,14
2023-10-25T13:22:55.000Z,15
2023-10-25T13:23:07.000Z,15
2023-10-25T13:23:16.000Z,15
2023-10-25T13:23:21.000Z,14
2023-10-25T13:23:36.000Z,15
2023-10-25T13:23:48.000Z,14
2023-10-25T13:23:57.000Z,14
2023-10-25T13:24:09.000Z,14
2023-10-25T13:24:20.000Z,14
2023-10-25T13:24:31.000Z,16
2023-10-25T13:24:40.000Z,16
2023-10-25T13:24:51.000Z,15
2023-10-25T13:25:02.000Z,15
2023-10-25T13:25:12.000Z,15
2023-10-25T13:25:21.000Z,15
2023-10-25T13:25:33.000Z,15
2023-10-25T13:25:44.000Z,15
2023-10-25T13:25:53.000Z,15
2023-10-25T13:26:02.000Z,14
2023-10-25T13:26:15.000Z,14
2023-10-25T13:26:24.000Z,17
2023-10-25T13:26:36.000Z,17
2023-10-25T13:26:47.000Z,16
2023-10-25T13:26:53.000Z,15
2023-10-25T13:27:07.000Z,14
2023-10-25T13:27:18.000Z,13
2023-10-25T13:27:27.000Z,13
2023-10-25T13:27:39.000Z,14
2023-10-25T13:27:48.000Z,14
2023-10-25T13:27:59.000Z,15
2023-10-25T13:28:11.000Z,15
2023-10-25T13:28:17.000Z,14
2023-10-25T13:28:31.000Z,14
2023-10-25T13:28:42.000Z,14
2023-10-25T13:28:50.000Z,14
2023-10-25T13:28:59.000Z,14
2023-10-25T13:29:11.000Z,14
2023-10-25T13:29:23.000Z,14
2023-10-25T13:29:32.000Z,14
2023-10-25T13:29:45.000Z,14
2023-10-25T13:29:54.000Z,14
2023-10-25T13:30:05.000Z,14
2023-10-25T13:30:16.000Z,13
2023-10-25T13:30:26.000Z,14
2023-10-25T13:30:36.000Z,14
2023-10-25T13:30:47.000Z,14
2023-10-25T13:30:55.000Z,14
2023-10-25T13:31:08.000Z,14
2023-10-25T13:31:19.000Z,14
2023-10-25T13:31:27.000Z,15
2023-10-25T13:31:38.000Z,15
2023-10-25T13:31:50.000Z,14
2023-10-25T13:31:59.000Z,14
2023-10-25T13:32:09.000Z,14
2023-10-25T13:32:20.000Z,15
2023-10-25T13:32:31.000Z,15
2023-10-25T13:32:42.000Z,15
2023-10-25T13:32:50.000Z,15
2023-10-25T13:33:02.000Z,15
2023-10-25T13:33:14.000Z,14
2023-10-25T13:33:22.000Z,14
2023-10-25T13:33:30.000Z,14
2023-10-25T13:33:45.000Z,15
2023-10-25T13:33:52.000Z,15
2023-10-25T13:34:06.000Z,14
2023-10-25T13:34:13.000Z,13
2023-10-25T13:34:26.000Z,13
2023-10-25T13:34:35.000Z,14
2023-10-25T13:34:46.000Z,13
2023-10-25T13:34:57.000Z,14
2023-10-25T13:35:08.000Z,13
2023-10-25T13:35:18.000Z,14
2023-10-25T13:35:29.000Z,14
2023-10-25T13:35:40.000Z,14
2023-10-25T13:35:49.000Z,13
2023-10-25T13:36:00.000Z,13
2023-10-25T13:36:11.000Z,13
2023-10-25T13:36:19.000Z,14
2023-10-25T13:36:32.000Z,14
2023-10-25T13:36:43.000Z,14
2023-10-25T13:36:51.000Z,14
2023-10-25T13:37:03.000Z,14
2023-10-25T13:37:11.000Z,14
2023-10-25T13:37:22.000Z,15
2023-10-25T13:37:35.000Z,16
2023-10-25T13:37:45.000Z,15
2023-10-25T13:37:55.000Z,14
2023-10-25T13:38:06.000Z,15
2023-10-25T13:38:16.000Z,15
2023-10-25T13:38:26.000Z,14
2023-10-25T13:38:36.000Z,14
2023-10-25T13:38:47.000Z,14
2023-10-25T13:38:57.000Z,16
2023-10-25T13:39:07.000Z,17
2023-10-25T13:39:18.000Z,16
2023-10-25T13:39:27.000Z,15
2023-10-25T13:39:37.000Z,18
2023-10-25T13:39:49.000Z,19
2023-10-25T13:39:57.000Z,18
2023-10-25T13:40:08.000Z,17
2023-10-25T13:40:20.000Z,16
2023-10-25T13:40:29.000Z,15
2023-10-25T13:40:41.000Z,14
2023-10-25T13:40:51.000Z,19
2023-10-25T13:41:02.000Z,17
2023-10-25T13:41:11.000Z,16
2023-10-25T13:41:23.000Z,15
2023-10-25T13:41:32.000Z,15
2023-10-25T13:41:44.000Z,14
2023-10-25T13:41:52.000Z,14
2023-10-25T13:42:04.000Z,14
2023-10-25T13:42:15.000Z,13
2023-10-25T13:42:24.000Z,13
2023-10-25T13:42:35.000Z,14
2023-10-25T13:42:47.000Z,15
2023-10-25T13:42:55.000Z,15
2023-10-25T13:43:07.000Z,15
2023-10-25T13:43:18.000Z,15
2023-10-25T13:43:27.000Z,15
2023-10-25T13:43:38.000Z,15
2023-10-25T13:43:50.000Z,15
2023-10-25T13:43:58.000Z,14
2023-10-25T13:44:10.000Z,13
2023-10-25T13:44:18.000Z,14
2023-10-25T13:44:30.000Z,14
2023-10-25T13:44:42.000Z,14
2023-10-25T13:44:50.000Z,14
2023-10-25T13:45:03.000Z,14
2023-10-25T13:45:14.000Z,14
2023-10-25T13:45:23.000Z,14
2023-10-25T13:45:35.000Z,14
2023-10-25T13:45:43.000Z,14
2023-10-25T13:45:55.000Z,13
2023-10-25T13:46:04.000Z,13
2023-10-25T13:46:13.000Z,13
2023-10-25T13:46:25.000Z,13
2023-10-25T13:46:36.000Z,14
2023-10-25T13:46:48.000Z,14
2023-10-25T13:46:57.000Z,14
2023-10-25T13:47:09.000Z,13
2023-10-25T13:47:20.000Z,13
2023-10-25T13:47:30.000Z,14
2023-10-25T13:47:39.000Z,13
2023-10-25T13:47:47.000Z,13
2023-10-25T13:48:02.000Z,14
2023-10-25T13:48:11.000Z,14
2023-10-25T13:48:23.000Z,14
2023-10-25T13:48:31.000Z,14
2023-10-25T13:48:43.000Z,14
2023-10-25T13:48:52.000Z,14
2023-10-25T13:49:04.000Z,14
2023-10-25T13:49:15.000Z,14
2023-10-25T13:49:24.000Z,14
2023-10-25T13:49:35.000Z,15
2023-10-25T13:49:44.000Z,16
2023-10-25T13:49:56.000Z,14
2023-10-25T13:50:05.000Z,14
2023-10-25T13:50:17.000Z,14
2023-10-25T13:50:26.000Z,15
2023-10-25T13:50:38.000Z,14
2023-10-25T13:50:41.000Z,14
2023-10-25T13:50:58.000Z,15
2023-10-25T13:51:07.000Z,16
2023-10-25T13:51:19.000Z,15
2023-10-25T13:51:30.000Z,15
2023-10-25T13:51:42.000Z,14
2023-10-25T13:51:51.000Z,13
2023-10-25T13:52:00.000Z,13
2023-10-25T13:52:11.000Z,13
2023-10-25T13:52:24.000Z,13
2023-10-25T13:52:34.000Z,14
2023-10-25T13:52:44.000Z,14
2023-10-25T13:52:54.000Z,14
2023-10-25T13:53:06.000Z,14
2023-10-25T13:53:14.000Z,13
2023-10-25T13:53:27.000Z,13
2023-10-25T13:53:36.000Z,14
2023-10-25T13:53:48.000Z,13
2023-10-25T13:53:56.000Z,13
2023-10-25T13:54:08.000Z,12
2023-10-25T13:54:17.000Z,13
2023-10-25T13:54:30.000Z,12
2023-10-25T13:54:39.000Z,12
2023-10-25T13:54:50.000Z,11
2023-10-25T13:54:56.000Z,12
2023-10-25T13:55:11.000Z,12
2023-10-25T13:55:20.000Z,11
2023-10-25T13:55:29.000Z,11
2023-10-25T13:55:43.000Z,12
2023-10-25T13:55:52.000Z,12
2023-10-25T13:56:04.000Z,12
2023-10-25T13:56:13.000Z,13
2023-10-25T13:57:33.000Z,12
2023-10-25T13:57:43.000Z,12
2023-10-25T13:57:54.000Z,13
2023-10-25T13:58:04.000Z,13
2023-10-25T13:58:13.000Z,12
2023-10-25T13:58:25.000Z,12
2023-10-25T13:58:36.000Z,12
2023-10-25T13:58:46.000Z,12
2023-10-25T13:58:55.000Z,11
2023-10-25T13:59:07.000Z,11
2023-10-25T13:59:17.000Z,12
2023-10-25T13:59:27.000Z,12
2023-10-25T13:59:39.000Z,12
2023-10-25T13:59:49.000Z,11
2023-10-25T13:59:58.000Z,11
2023-10-25T14:00:10.000Z,11
2023-10-25T14:00:18.000Z,11
2023-10-25T14:00:31.000Z,11
2023-10-25T14:00:41.000Z,13
2023-10-25T14:00:50.000Z,13
2023-10-25T14:01:02.000Z,13
2023-10-25T14:01:11.000Z,13
2023-10-25T14:01:22.000Z,12
2023-10-25T14:01:32.000Z,13
2023-10-25T14:01:42.000Z,12
2023-10-25T14:01:52.000Z,12
2023-10-25T14:02:03.000Z,11
2023-10-25T14:02:13.000Z,11
2023-10-25T14:02:24.000Z,11
2023-10-25T14:02:34.000Z,11
2023-10-25T14:02:45.000Z,11
2023-10-25T14:02:56.000Z,11
2023-10-25T14:03:06.000Z,11
2023-10-25T14:03:17.000Z,12
2023-10-25T14:03:28.000Z,12
2023-10-25T14:03:36.000Z,12
2023-10-25T14:03:49.000Z,12
2023-10-25T14:03:59.000Z,12
2023-10-25T14:04:08.000Z,12
2023-10-25T14:04:20.000Z,12
2023-10-25T14:04:29.000Z,13
2023-10-25T14:04:40.000Z,12
2023-10-25T14:04:52.000Z,12
2023-10-25T14:05:02.000Z,12
2023-10-25T14:05:12.000Z,13
2023-10-25T14:05:23.000Z,13
2023-10-25T14:05:31.000Z,12
2023-10-25T14:05:41.000Z,12
2023-10-25T14:05:53.000Z,13
2023-10-25T14:06:04.000Z,14
2023-10-25T14:06:11.000Z,14
2023-10-25T14:06:24.000Z,14
2023-10-25T14:06:32.000Z,13
2023-10-25T14:06:45.000Z,12
2023-10-25T14:06:54.000Z,12
2023-10-25T14:07:07.000Z,12
2023-10-25T14:07:15.000Z,12
2023-10-25T14:07:29.000Z,12
2023-10-25T14:07:36.000Z,13
2023-10-25T14:07:49.000Z,14
2023-10-25T14:08:00.000Z,13
2023-10-25T14:08:10.000Z,13
2023-10-25T14:08:21.000Z,12
2023-10-25T14:08:30.000Z,12
2023-10-25T14:08:41.000Z,12
2023-10-25T14:08:52.000Z,12
2023-10-25T14:09:00.000Z,11
2023-10-25T14:09:12.000Z,11
2023-10-25T14:09:24.000Z,11
2023-10-25T14:09:34.000Z,10
2023-10-25T14:09:42.000Z,10
2023-10-25T14:09:55.000Z,11
2023-10-25T14:10:04.000Z,12
2023-10-25T14:10:16.000Z,13
2023-10-25T14:10:26.000Z,13
2023-10-25T14:10:37.000Z,12
2023-10-25T14:10:47.000Z,12
2023-10-25T14:10:57.000Z,12
2023-10-25T14:11:08.000Z,12
2023-10-25T14:11:16.000Z,12
2023-10-25T14:11:28.000Z,13
2023-10-25T14:11:38.000Z,14
2023-10-25T14:11:49.000Z,14
2023-10-25T14:11:53.000Z,13
2023-10-25T14:12:10.000Z,13
2023-10-25T14:12:21.000Z,13
2023-10-25T14:12:31.000Z,12
2023-10-25T14:12:41.000Z,13
2023-10-25T14:12:50.000Z,14
2023-10-25T14:13:03.000Z,14
2023-10-25T14:13:13.000Z,14
2023-10-25T14:13:24.000Z,13
2023-10-25T14:13:35.000Z,13
2023-10-25T14:13:43.000Z,13
2023-10-25T14:13:53.000Z,13
2023-10-25T14:14:03.000Z,12
2023-10-25T14:14:10.000Z,12
2023-10-25T14:14:25.000Z,12
2023-10-25T14:14:36.000Z,12
2023-10-25T14:14:48.000Z,12
2023-10-25T14:14:58.000Z,13
2023-10-25T14:15:07.000Z,13
2023-10-25T14:15:17.000Z,13
2023-10-25T14:15:24.000Z,13
2023-10-25T14:15:37.000Z,13
2023-10-25T14:15:50.000Z,13
2023-10-25T14:16:00.000Z,13
2023-10-25T14:16:09.000Z,13
2023-10-25T14:16:19.000Z,13
2023-10-25T14:16:32.000Z,13
2023-10-25T14:16:41.000Z,13
2023-10-25T14:16:53.000Z,13
2023-10-25T14:17:03.000Z,13
2023-10-25T14:17:12.000Z,13
2023-10-25T14:17:24.000Z,14
2023-10-25T14:17:32.000Z,14
2023-10-25T14:17:45.000Z,14
2023-10-25T14:17:54.000Z,14
2023-10-25T14:18:03.000Z,13
2023-10-25T14:18:09.000Z,13
2023-10-25T14:18:26.000Z,13
2023-10-25T14:18:37.000Z,13
2023-10-25T14:18:44.000Z,14
2023-10-25T14:18:58.000Z,14
2023-10-25T14:19:02.000Z,14
2023-10-25T14:19:18.000Z,14
2023-10-25T14:19:28.000Z,15
2023-10-25T14:19:39.000Z,15
2023-10-25T14:19:50.000Z,14
2023-10-25T14:20:00.000Z,14
2023-10-25T14:20:10.000Z,15
2023-10-25T14:20:20.000Z,14
2023-10-25T14:20:31.000Z,14
2023-10-25T14:20:41.000Z,13
2023-10-25T14:20:51.000Z,13
2023-10-25T14:21:03.000Z,12
2023-10-25T14:21:12.000Z,12
2023-10-25T14:21:23.000Z,12
2023-10-25T14:21:34.000Z,13
2023-10-25T14:21:44.000Z,14
2023-10-25T14:21:55.000Z,14
2023-10-25T14:22:04.000Z,14
2023-10-25T14:22:10.000Z,15
2023-10-25T14:22:25.000Z,15
2023-10-25T14:22:32.000Z,14
2023-10-25T14:22:47.000Z,13
2023-10-25T14:22:57.000Z,13
2023-10-25T14:23:06.000Z,13
2023-10-25T14:23:18.000Z,12
2023-10-25T14:23:25.000Z,13
2023-10-25T14:23:38.000Z,13
2023-10-25T14:23:49.000Z,12
2023-10-25T14:23:59.000Z,12
2023-10-25T14:24:10.000Z,11
2023-10-25T14:24:14.000Z,12
2023-10-25T14:24:31.000Z,12
2023-10-25T14:24:40.000Z,12
2023-10-25T14:24:52.000Z,12
2023-10-25T14:25:01.000Z,18
2023-10-25T14:25:11.000Z,24
2023-10-25T14:25:23.000Z,17
2023-10-25T14:25:32.000Z,14
2023-10-25T14:25:42.000Z,13
2023-10-25T14:25:54.000Z,12
2023-10-25T14:26:02.000Z,12
2023-10-25T14:26:10.000Z,12
2023-10-25T14:26:26.000Z,12
2023-10-25T14:26:36.000Z,13
2023-10-25T14:26:47.000Z,13
2023-10-25T14:26:57.000Z,13
2023-10-25T14:27:07.000Z,13
2023-10-25T14:27:15.000Z,13
2023-10-25T14:27:28.000Z,14
2023-10-25T14:27:37.000Z,13
2023-10-25T14:27:44.000Z,12
2023-10-25T14:27:56.000Z,12
2023-10-25T14:28:10.000Z,11
2023-10-25T14:28:20.000Z,12
2023-10-25T14:28:30.000Z,13
2023-10-25T14:28:42.000Z,13
2023-10-25T14:28:50.000Z,13
2023-10-25T14:29:03.000Z,13
2023-10-25T14:29:12.000Z,13
2023-10-25T14:29:19.000Z,14
2023-10-25T14:29:33.000Z,13
2023-10-25T14:29:43.000Z,13
2023-10-25T14:29:55.000Z,15
2023-10-25T14:30:03.000Z,18
2023-10-25T14:30:16.000Z,16
2023-10-25T14:30:26.000Z,15
2023-10-25T14:30:36.000Z,15
2023-10-25T14:30:46.000Z,14
2023-10-25T14:30:57.000Z,13
2023-10-25T14:31:08.000Z,13
2023-10-25T14:31:18.000Z,13
2023-10-25T14:31:28.000Z,14
2023-10-25T14:31:38.000Z,13
2023-10-25T14:31:50.000Z,14
2023-10-25T14:31:56.000Z,14
2023-10-25T14:32:10.000Z,14
2023-10-25T14:32:21.000Z,14
2023-10-25T14:32:31.000Z,14
2023-10-25T14:32:42.000Z,13
2023-10-25T14:32:50.000Z,12
2023-10-25T14:33:02.000Z,12
2023-10-25T14:33:08.000Z,12
2023-10-25T14:33:24.000Z,12
2023-10-25T14:33:32.000Z,12
2023-10-25T14:33:40.000Z,11
2023-10-25T14:33:55.000Z,12
2023-10-25T14:34:05.000Z,14
2023-10-25T14:34:16.000Z,15
2023-10-25T14:34:26.000Z,14
2023-10-25T14:34:36.000Z,14
2023-10-25T14:34:42.000Z,14
2023-10-25T14:34:58.000Z,14
2023-10-25T14:35:07.000Z,13
2023-10-25T14:35:18.000Z,13
2023-10-25T14:35:29.000Z,13
2023-10-25T14:35:37.000Z,12
2023-10-25T14:35:50.000Z,13
2023-10-25T14:36:00.000Z,13
2023-10-25T14:36:10.000Z,13
2023-10-25T14:36:21.000Z,12
2023-10-25T14:36:30.000Z,12
2023-10-25T14:36:42.000Z,13
2023-10-25T14:36:51.000Z,13
2023-10-25T14:37:02.000Z,13
2023-10-25T14:37:13.000Z,13
2023-10-25T14:37:23.000Z,13
2023-10-25T14:37:33.000Z,13
2023-10-25T14:37:45.000Z,13
2023-10-25T14:37:53.000Z,13
2023-10-25T14:37:53.000Z,12
2023-10-25T14:38:15.000Z,12
2023-10-25T14:38:27.000Z,13
2023-10-25T14:38:37.000Z,13
2023-10-25T14:38:37.000Z,13
2023-10-25T14:38:56.000Z,13
2023-10-25T14:39:08.000Z,13
2023-10-25T14:39:19.000Z,13
2023-10-25T14:39:28.000Z,13
2023-10-25T14:39:36.000Z,13
2023-10-25T14:39:45.000Z,14
2023-10-25T14:39:59.000Z,14
2023-10-25T14:40:09.000Z,13
2023-10-25T14:40:19.000Z,13
2023-10-25T14:40:32.000Z,13
2023-10-25T14:40:42.000Z,13
2023-10-25T14:40:53.000Z,13
2023-10-25T14:41:02.000Z,12
2023-10-25T14:41:12.000Z,12
2023-10-25T14:41:24.000Z,13
2023-10-25T14:41:31.000Z,13
2023-10-25T14:41:44.000Z,13
2023-10-25T14:41:53.000Z,14
2023-10-25T14:42:04.000Z,14
2023-10-25T14:42:11.000Z,14
2023-10-25T14:42:24.000Z,14
2023-10-25T14:42:38.000Z,13
2023-10-25T14:42:48.000Z,12
2023-10-25T14:42:58.000Z,12
2023-10-25T14:43:08.000Z,12
2023-10-25T14:43:16.000Z,13
2023-10-25T14:43:30.000Z,13
2023-10-25T14:43:40.000Z,12
2023-10-25T14:43:51.000Z,13
2023-10-25T14:44:00.000Z,12
2023-10-25T14:44:12.000Z,12
2023-10-25T14:44:22.000Z,12
2023-10-25T14:44:32.000Z,12
2023-10-25T14:44:42.000Z,12
2023-10-25T14:44:52.000Z,12
2023-10-25T14:45:04.000Z,12
2023-10-25T14:45:13.000Z,12
2023-10-25T14:45:22.000Z,13
2023-10-25T14:45:36.000Z,13
2023-10-25T14:45:46.000Z,14
2023-10-25T14:45:56.000Z,17
2023-10-25T14:46:07.000Z,25
2023-10-25T14:46:17.000Z,25
2023-10-25T14:46:27.000Z,21
2023-10-25T14:46:37.000Z,18
2023-10-25T14:46:48.000Z,16
2023-10-25T14:46:54.000Z,15
2023-10-25T14:47:07.000Z,14
2023-10-25T14:47:19.000Z,14
2023-10-25T14:47:29.000Z,13
2023-10-25T14:47:38.000Z,13
2023-10-25T14:47:50.000Z,12
2023-10-25T14:47:57.000Z,12
2023-10-25T14:48:11.000Z,12
2023-10-25T14:48:21.000Z,12
2023-10-25T14:48:30.000Z,12
2023-10-25T14:48:40.000Z,12
2023-10-25T14:48:52.000Z,13
2023-10-25T14:49:01.000Z,12
2023-10-25T14:49:14.000Z,12
2023-10-25T14:49:22.000Z,13
2023-10-25T14:49:31.000Z,12
2023-10-25T14:49:45.000Z,12
2023-10-25T14:49:52.000Z,13
2023-10-25T14:50:04.000Z,13
2023-10-25T14:50:14.000Z,13
2023-10-25T14:50:25.000Z,13
2023-10-25T14:50:37.000Z,13
2023-10-25T14:50:47.000Z,13
2023-10-25T14:50:55.000Z,13
2023-10-25T14:51:07.000Z,14
2023-10-25T14:51:12.000Z,14
2023-10-25T14:51:25.000Z,14
2023-10-25T14:51:35.000Z,14
2023-10-25T14:51:47.000Z,14
2023-10-25T14:51:56.000Z,13
2023-10-25T14:52:10.000Z,13
2023-10-25T14:52:20.000Z,13
2023-10-25T14:52:30.000Z,13
2023-10-25T14:52:37.000Z,14
2023-10-25T14:52:49.000Z,14
2023-10-25T14:53:02.000Z,14
2023-10-25T14:53:11.000Z,12
2023-10-25T14:53:22.000Z,12
2023-10-25T14:53:33.000Z,12
2023-10-25T14:53:43.000Z,12
2023-10-25T14:53:53.000Z,12
2023-10-25T14:54:05.000Z,12
2023-10-25T14:54:13.000Z,12
2023-10-25T14:54:23.000Z,12
2023-10-25T14:54:35.000Z,12
2023-10-25T14:54:45.000Z,13
2023-10-25T14:54:57.000Z,13
2023-10-25T14:55:03.000Z,12
2023-10-25T14:55:17.000Z,13
2023-10-25T14:55:28.000Z,13
2023-10-25T14:55:37.000Z,13
2023-10-25T14:55:49.000Z,13
2023-10-25T14:55:59.000Z,14
2023-10-25T14:56:09.000Z,14
2023-10-25T14:56:19.000Z,15
2023-10-25T14:56:29.000Z,15
2023-10-25T14:56:42.000Z,15
2023-10-25T14:56:52.000Z,14
2023-10-25T14:57:03.000Z,14
2023-10-25T14:57:13.000Z,14
2023-10-25T14:57:20.000Z,14
2023-10-25T14:57:34.000Z,13
2023-10-25T14:57:44.000Z,13
2023-10-25T14:57:52.000Z,13
2023-10-25T14:58:01.000Z,14
2023-10-25T14:58:11.000Z,14
2023-10-25T14:58:26.000Z,14
2023-10-25T14:58:34.000Z,13
2023-10-25T14:58:46.000Z,12
2023-10-25T14:58:56.000Z,12
2023-10-25T14:59:06.000Z,12
2023-10-25T14:59:18.000Z,12
2023-10-25T14:59:28.000Z,12
2023-10-25T14:59:37.000Z,12
2023-10-25T14:59:48.000Z,12
2023-10-25T14:59:59.000Z,12
2023-10-25T15:00:09.000Z,12
2023-10-25T15:00:20.000Z,12
2023-10-25T15:00:29.000Z,12
2023-10-25T15:00:39.000Z,13
2023-10-25T15:00:52.000Z,13
2023-10-25T15:00:59.000Z,12
2023-10-25T15:01:12.000Z,12
2023-10-25T15:01:22.000Z,12
2023-10-25T15:01:34.000Z,12
2023-10-25T15:01:42.000Z,13
2023-10-25T15:01:55.000Z,13
2023-10-25T15:02:05.000Z,13
2023-10-25T15:02:15.000Z,13
2023-10-25T15:02:15.000Z,13
2023-10-25T15:02:35.000Z,13
2023-10-25T15:02:47.000Z,13
2023-10-25T15:02:54.000Z,12
2023-10-25T15:03:07.000Z,13
2023-10-25T15:03:18.000Z,13
2023-10-25T15:03:28.000Z,14
2023-10-25T15:03:37.000Z,15
2023-10-25T15:03:49.000Z,15
2023-10-25T15:03:58.000Z,14
2023-10-25T15:04:08.000Z,13
2023-10-25T15:04:18.000Z,13
2023-10-25T15:04:31.000Z,13
2023-10-25T15:04:41.000Z,12
2023-10-25T15:04:50.000Z,12
2023-10-25T15:05:00.000Z,11
2023-10-25T15:05:11.000Z,11
2023-10-25T15:05:21.000Z,11
2023-10-25T15:05:31.000Z,12
2023-10-25T15:05:42.000Z,13
2023-10-25T15:05:52.000Z,13
2023-10-25T15:06:01.000Z,13
2023-10-25T15:06:16.000Z,14
2023-10-25T15:06:25.000Z,14
2023-10-25T15:06:32.000Z,13
2023-10-25T15:06:42.000Z,13
2023-10-25T15:06:57.000Z,14
2023-10-25T15:07:06.000Z,13
2023-10-25T15:07:16.000Z,13
2023-10-25T15:07:28.000Z,13
2023-10-25T15:07:37.000Z,13
2023-10-25T15:07:47.000Z,13
2023-10-25T15:08:00.000Z,13
2023-10-25T15:08:11.000Z,13
2023-10-25T15:08:21.000Z,13
2023-10-25T15:08:31.000Z,14
2023-10-25T15:08:39.000Z,16
2023-10-25T15:08:52.000Z,15
2023-10-25T15:09:02.000Z,15
2023-10-25T15:09:09.000Z,16
2023-10-25T15:09:23.000Z,15
2023-10-25T15:09:33.000Z,15
2023-10-25T15:09:43.000Z,15
2023-10-25T15:09:53.000Z,15
2023-10-25T15:10:04.000Z,15
2023-10-25T15:10:50.000Z,14
2023-10-25T15:10:55.000Z,14
2023-10-25T15:11:11.000Z,13
2023-10-25T15:11:21.000Z,13
2023-10-25T15:11:31.000Z,14
2023-10-25T15:11:38.000Z,15
2023-10-25T15:11:52.000Z,15
2023-10-25T15:12:01.000Z,17
2023-10-25T15:12:13.000Z,16
2023-10-25T15:12:23.000Z,16
2023-10-25T15:12:34.000Z,14
2023-10-25T15:12:43.000Z,14
2023-10-25T15:12:53.000Z,14
2023-10-25T15:13:05.000Z,14
2023-10-25T15:13:15.000Z,15
2023-10-25T15:13:19.000Z,14
2023-10-25T15:13:36.000Z,14
2023-10-25T15:13:46.000Z,14
2023-10-25T15:13:57.000Z,14
2023-10-25T15:14:08.000Z,14
2023-10-25T15:14:15.000Z,15
2023-10-25T15:14:29.000Z,15
2023-10-25T15:14:39.000Z,15
2023-10-25T15:14:50.000Z,14
2023-10-25T15:15:00.000Z,14
2023-10-25T15:15:10.000Z,14
2023-10-25T15:15:21.000Z,14
2023-10-25T15:15:31.000Z,14
2023-10-25T15:15:40.000Z,14
2023-10-25T15:15:51.000Z,15
2023-10-25T15:16:03.000Z,15
2023-10-25T15:16:13.000Z,15
2023-10-25T15:16:22.000Z,16
2023-10-25T15:16:31.000Z,16
2023-10-25T15:16:41.000Z,16
2023-10-25T15:16:55.000Z,15
2023-10-25T15:17:04.000Z,15
2023-10-25T15:17:16.000Z,15
2023-10-25T15:17:26.000Z,14
2023-10-25T15:17:31.000Z,14
2023-10-25T15:17:45.000Z,14
2023-10-25T15:17:56.000Z,14
2023-10-25T15:18:08.000Z,14
2023-10-25T15:18:16.000Z,15
2023-10-25T15:18:25.000Z,15
2023-10-25T15:18:39.000Z,15
2023-10-25T15:18:47.000Z,15
2023-10-25T15:18:56.000Z,15
2023-10-25T15:19:05.000Z,16
2023-10-25T15:19:19.000Z,16
2023-10-25T15:19:31.000Z,17
2023-10-25T15:19:39.000Z,17
2023-10-25T15:19:46.000Z,16
2023-10-25T15:20:02.000Z,16
2023-10-25T15:20:13.000Z,17
2023-10-25T15:20:22.000Z,18
2023-10-25T15:20:34.000Z,17
2023-10-25T15:20:43.000Z,17
2023-10-25T15:20:54.000Z,17
2023-10-25T15:21:05.000Z,16
2023-10-25T15:21:15.000Z,15
2023-10-25T15:21:26.000Z,16
2023-10-25T15:21:37.000Z,16
2023-10-25T15:21:46.000Z,16
2023-10-25T15:21:57.000Z,16
2023-10-25T15:22:08.000Z,16
2023-10-25T15:22:18.000Z,17
2023-10-25T15:22:29.000Z,16
2023-10-25T15:22:39.000Z,15
2023-10-25T15:22:50.000Z,15
2023-10-25T15:23:00.000Z,15
2023-10-25T15:23:10.000Z,15
2023-10-25T15:23:21.000Z,15
2023-10-25T15:23:30.000Z,15
2023-10-25T15:23:42.000Z,15
2023-10-25T15:23:50.000Z,15
2023-10-25T15:24:02.000Z,15
2023-10-25T15:24:04.000Z,16
2023-10-25T15:24:23.000Z,16
2023-10-25T15:24:34.000Z,16
2023-10-25T15:24:44.000Z,16
2023-10-25T15:24:53.000Z,16
2023-10-25T15:25:05.000Z,16
2023-10-25T15:25:16.000Z,16
2023-10-25T15:25:24.000Z,16
2023-10-25T15:25:37.000Z,16
2023-10-25T15:25:46.000Z,15
2023-10-25T15:25:57.000Z,15
2023-10-25T15:26:07.000Z,16
2023-10-25T15:26:16.000Z,16
2023-10-25T15:26:29.000Z,16
2023-10-25T15:26:37.000Z,16
2023-10-25T15:26:49.000Z,15
2023-10-25T15:26:58.000Z,15
2023-10-25T15:27:10.000Z,15
2023-10-25T15:27:21.000Z,16
2023-10-25T15:27:30.000Z,17
2023-10-25T15:27:42.000Z,17
2023-10-25T15:27:50.000Z,17
2023-10-25T15:27:59.000Z,17
2023-10-25T15:28:10.000Z,17
2023-10-25T15:28:24.000Z,18
2023-10-25T15:28:32.000Z,18
2023-10-25T15:28:45.000Z,18
2023-10-25T15:28:45.000Z,18
2023-10-25T15:29:06.000Z,17
2023-10-25T15:29:16.000Z,17
2023-10-25T15:29:26.000Z,17
2023-10-25T15:29:37.000Z,16
2023-10-25T15:29:45.000Z,16
2023-10-25T15:29:58.000Z,17
2023-10-25T15:30:05.000Z,17
2023-10-25T15:30:19.000Z,16
2023-10-25T15:30:29.000Z,15
2023-10-25T15:30:40.000Z,14
2023-10-25T15:30:50.000Z,13
2023-10-25T15:30:57.000Z,14
2023-10-25T15:31:11.000Z,14
2023-10-25T15:31:18.000Z,14
2023-10-25T15:32:28.000Z,13
2023-10-25T15:32:36.000Z,12
2023-10-25T15:32:47.000Z,12
2023-10-25T15:32:58.000Z,13
2023-10-25T15:33:07.000Z,14
2023-10-25T15:33:20.000Z,15
2023-10-25T15:33:29.000Z,16
2023-10-25T15:33:40.000Z,16
2023-10-25T15:33:50.000Z,17
2023-10-25T15:34:02.000Z,18
2023-10-25T15:34:08.000Z,16
2023-10-25T15:34:22.000Z,16
2023-10-25T15:34:33.000Z,17
2023-10-25T15:34:43.000Z,17
2023-10-25T15:34:54.000Z,17
2023-10-25T15:35:05.000Z,17
2023-10-25T15:35:13.000Z,18
2023-10-25T15:35:26.000Z,18
2023-10-25T15:35:35.000Z,18
2023-10-25T15:35:43.000Z,18
2023-10-25T15:35:53.000Z,17
2023-10-25T15:36:07.000Z,18
2023-10-25T15:36:15.000Z,18
2023-10-25T15:36:26.000Z,18
2023-10-25T15:36:38.000Z,18
2023-10-25T15:36:49.000Z,18
2023-10-25T15:36:58.000Z,18
2023-10-25T15:37:07.000Z,17
2023-10-25T15:37:19.000Z,17
2023-10-25T15:37:29.000Z,16
2023-10-25T15:37:40.000Z,16
2023-10-25T15:37:52.000Z,16
2023-10-25T15:38:00.000Z,16
2023-10-25T15:38:12.000Z,16
2023-10-25T15:38:22.000Z,17
2023-10-25T15:38:33.000Z,17
2023-10-25T15:38:40.000Z,16
2023-10-25T15:38:54.000Z,16
2023-10-25T15:39:05.000Z,16
2023-10-25T15:39:15.000Z,17
2023-10-25T15:39:24.000Z,18
2023-10-25T15:39:36.000Z,18
2023-10-25T15:39:47.000Z,17
2023-10-25T15:39:57.000Z,17
2023-10-25T15:40:06.000Z,16
2023-10-25T15:40:17.000Z,16
2023-10-25T15:40:29.000Z,16
2023-10-25T15:40:39.000Z,17
2023-10-25T15:40:47.000Z,17
2023-10-25T15:40:59.000Z,17
2023-10-25T15:41:09.000Z,17
2023-10-25T15:41:17.000Z,17
2023-10-25T15:41:29.000Z,16
2023-10-25T15:41:42.000Z,16
2023-10-25T15:41:50.000Z,16
2023-10-25T15:42:02.000Z,15
2023-10-25T15:42:09.000Z,15
2023-10-25T15:42:14.000Z,15
2023-10-25T15:42:31.000Z,16
2023-10-25T15:42:45.000Z,16
2023-10-25T15:42:55.000Z,17
2023-10-25T15:43:04.000Z,17
2023-10-25T15:43:10.000Z,16
2023-10-25T15:43:26.000Z,15
2023-10-25T15:43:36.000Z,15
2023-10-25T15:43:45.000Z,15
2023-10-25T15:43:57.000Z,16
2023-10-25T15:44:08.000Z,16
2023-10-25T15:44:18.000Z,16
2023-10-25T15:44:27.000Z,15
2023-10-25T15:44:40.000Z,15
2023-10-25T15:44:47.000Z,15
2023-10-25T15:44:58.000Z,15
2023-10-25T15:45:10.000Z,16
2023-10-25T15:45:21.000Z,16
2023-10-25T15:45:31.000Z,16
2023-10-25T15:45:41.000Z,18
2023-10-25T15:45:51.000Z,20
2023-10-25T15:46:02.000Z,21
2023-10-25T15:46:12.000Z,19
2023-10-25T15:46:24.000Z,18
2023-10-25T15:46:33.000Z,17
2023-10-25T15:46:41.000Z,17
2023-10-25T15:46:54.000Z,18
2023-10-25T15:47:03.000Z,17
2023-10-25T15:47:14.000Z,16
2023-10-25T15:47:25.000Z,15
2023-10-25T15:47:32.000Z,15
2023-10-25T15:47:47.000Z,15
2023-10-25T15:47:57.000Z,16
2023-10-25T15:48:05.000Z,15
2023-10-25T15:48:19.000Z,15
2023-10-25T15:48:27.000Z,16
2023-10-25T15:48:39.000Z,19
2023-10-25T15:48:50.000Z,18
2023-10-25T15:48:56.000Z,17
2023-10-25T15:49:09.000Z,15
2023-10-25T15:49:20.000Z,13
2023-10-25T15:49:28.000Z,13
2023-10-25T15:49:42.000Z,14